createdAt,value
2019-03-04T00:00:26.329Z,8.80
2019-03-04T00:02:55.150Z,8.80
2019-03-04T00:05:24.027Z,8.80
2019-03-04T00:07:52.853Z,8.80
2019-03-04T00:10:21.719Z,8.80
2019-03-04T00:12:50.551Z,8.80
2019-03-04T00:15:20.423Z,8.80
2019-03-04T00:17:49.295Z,8.70
2019-03-04T00:20:18.119Z,8.80
2019-03-04T00:22:46.975Z,8.70
2019-03-04T00:25:15.839Z,8.70
2019-03-04T00:27:44.663Z,8.70
2019-03-04T00:30:13.541Z,8.70
2019-03-04T00:32:42.408Z,8.60
2019-03-04T00:35:11.231Z,8.60
2019-03-04T00:37:40.108Z,8.60
2019-03-04T00:40:13.173Z,8.60
2019-03-04T00:42:42.042Z,8.60
2019-03-04T00:45:13.179Z,8.60
2019-03-04T00:47:42.006Z,8.60
2019-03-04T00:50:16.526Z,8.60
2019-03-04T00:52:45.399Z,8.60
2019-03-04T00:55:14.315Z,8.60
2019-03-04T00:57:43.179Z,8.60
2019-03-04T01:00:16.692Z,8.60
2019-03-04T01:02:45.514Z,8.60
2019-03-04T01:05:14.675Z,8.60
2019-03-04T01:07:43.604Z,8.60
2019-03-04T01:10:14.435Z,8.50
2019-03-04T01:12:43.308Z,8.60
2019-03-04T01:15:16.342Z,8.50
2019-03-04T01:17:45.171Z,8.60
2019-03-04T01:20:18.471Z,8.60
2019-03-04T01:22:47.327Z,8.60
2019-03-04T01:25:18.532Z,8.60
2019-03-04T01:27:47.699Z,8.60
2019-03-04T01:30:24.259Z,8.60
2019-03-04T01:32:53.724Z,8.70
2019-03-04T01:35:22.592Z,8.60
2019-03-04T01:37:51.414Z,8.60
2019-03-04T01:40:24.172Z,8.60
2019-03-04T01:42:53.037Z,8.50
2019-03-04T01:45:21.872Z,8.50
2019-03-04T01:47:50.739Z,8.50
2019-03-04T01:50:19.904Z,8.50
2019-03-04T01:52:48.734Z,8.50
2019-03-04T01:55:18.797Z,8.40
2019-03-04T01:57:47.668Z,8.40
2019-03-04T02:00:18.868Z,8.40
2019-03-04T02:02:47.838Z,8.40
2019-03-04T02:05:17.200Z,8.30
2019-03-04T02:07:46.123Z,8.40
2019-03-04T02:10:19.285Z,8.40
2019-03-04T02:12:49.058Z,8.40
2019-03-04T02:15:21.307Z,8.40
2019-03-04T02:17:51.628Z,8.40
2019-03-04T02:20:20.496Z,8.50
2019-03-04T02:22:49.319Z,8.50
2019-03-04T02:25:42.357Z,8.50
2019-03-04T02:28:11.224Z,8.50
2019-03-04T02:30:40.055Z,8.60
2019-03-04T02:33:08.937Z,8.60
2019-03-04T02:35:37.806Z,8.60
2019-03-04T02:38:06.633Z,8.60
2019-03-04T02:40:35.500Z,8.60
2019-03-04T02:43:04.365Z,8.60
2019-03-04T02:45:33.201Z,8.50
2019-03-04T02:48:02.065Z,8.60
2019-03-04T02:50:30.938Z,8.60
2019-03-04T02:52:59.759Z,8.60
2019-03-04T02:55:28.627Z,8.60
2019-03-04T02:57:57.487Z,8.60
2019-03-04T03:00:26.320Z,8.60
2019-03-04T03:02:55.189Z,8.60
2019-03-04T03:05:24.056Z,8.60
2019-03-04T03:07:52.871Z,8.60
2019-03-04T03:10:21.741Z,8.60
2019-03-04T03:12:50.610Z,8.60
2019-03-04T03:15:21.018Z,8.60
2019-03-04T03:17:49.887Z,8.60
2019-03-04T03:20:18.756Z,8.60
2019-03-04T03:22:47.590Z,8.50
2019-03-04T03:25:16.849Z,8.50
2019-03-04T03:27:45.716Z,8.50
2019-03-04T03:30:19.751Z,8.40
2019-03-04T03:32:48.629Z,8.40
2019-03-04T03:35:17.507Z,8.30
2019-03-04T03:37:46.376Z,8.30
2019-03-04T03:40:20.213Z,8.30
2019-03-04T03:42:49.067Z,8.20
2019-03-04T03:45:19.144Z,8.20
2019-03-04T03:47:47.957Z,8.20
2019-03-04T03:50:17.324Z,8.20
2019-03-04T03:52:46.570Z,8.20
2019-03-04T03:55:16.698Z,8.20
2019-03-04T03:57:45.560Z,8.20
2019-03-04T04:00:24.897Z,8.20
2019-03-04T04:02:53.720Z,8.20
2019-03-04T04:05:22.593Z,8.30
2019-03-04T04:07:51.429Z,8.30
2019-03-04T04:10:21.418Z,8.30
2019-03-04T04:12:50.413Z,8.30
2019-03-04T04:15:20.388Z,8.20
2019-03-04T04:17:49.433Z,8.10
2019-03-04T04:20:18.279Z,8.00
2019-03-04T04:22:48.106Z,8.00
2019-03-04T04:25:17.171Z,8.00
2019-03-04T04:27:46.008Z,7.90
2019-03-04T04:30:18.519Z,7.90
2019-03-04T04:32:47.349Z,7.90
2019-03-04T04:35:16.217Z,7.90
2019-03-04T04:37:45.052Z,7.90
2019-03-04T04:40:14.613Z,7.80
2019-03-04T04:42:44.139Z,7.80
2019-03-04T04:45:13.720Z,7.80
2019-03-04T04:47:43.782Z,7.70
2019-03-04T04:50:30.731Z,7.70
2019-03-04T04:52:59.599Z,7.70
2019-03-04T04:55:28.430Z,7.70
2019-03-04T04:57:57.395Z,7.70
2019-03-04T05:00:26.260Z,7.60
2019-03-04T05:02:55.083Z,7.60
2019-03-04T05:05:23.959Z,7.60
2019-03-04T05:07:52.815Z,7.60
2019-03-04T05:10:25.053Z,7.60
2019-03-04T05:12:53.914Z,7.60
2019-03-04T05:15:23.955Z,7.60
2019-03-04T05:17:52.791Z,7.60
2019-03-04T05:20:24.591Z,7.50
2019-03-04T05:22:53.460Z,7.50
2019-03-04T05:25:22.284Z,7.50
2019-03-04T05:27:51.156Z,7.50
2019-03-04T05:30:21.889Z,7.60
2019-03-04T05:32:50.707Z,7.50
2019-03-04T05:35:19.771Z,7.50
2019-03-04T05:37:48.647Z,7.60
2019-03-04T05:40:21.324Z,7.60
2019-03-04T05:42:50.184Z,7.60
2019-03-04T05:45:20.039Z,7.60
2019-03-04T05:47:48.935Z,7.60
2019-03-04T05:50:19.910Z,7.60
2019-03-04T05:52:48.788Z,7.60
2019-03-04T05:55:17.610Z,7.50
2019-03-04T05:57:46.479Z,7.50
2019-03-04T06:00:21.420Z,7.50
2019-03-04T06:02:51.792Z,7.40
2019-03-04T06:05:20.673Z,7.30
2019-03-04T06:07:54.093Z,7.30
2019-03-04T06:10:22.960Z,7.20
2019-03-04T06:12:51.783Z,7.10
2019-03-04T06:15:22.138Z,7.10
2019-03-04T06:17:51.011Z,7.00
2019-03-04T06:20:20.539Z,7.00
2019-03-04T06:22:49.408Z,6.90
2019-03-04T06:25:20.784Z,6.90
2019-03-04T06:27:49.602Z,6.90
2019-03-04T06:30:23.531Z,6.90
2019-03-04T06:32:52.371Z,7.00
2019-03-04T06:35:21.204Z,7.00
2019-03-04T06:37:50.069Z,7.00
2019-03-04T06:40:20.236Z,7.00
2019-03-04T06:42:49.072Z,7.10
2019-03-04T06:45:20.139Z,7.10
2019-03-04T06:47:49.011Z,7.20
2019-03-04T06:50:46.569Z,7.20
2019-03-04T06:53:35.884Z,7.30
2019-03-04T06:56:10.456Z,7.40
2019-03-04T06:58:42.265Z,7.60
2019-03-04T07:01:13.844Z,7.70
2019-03-04T07:03:42.718Z,7.90
2019-03-04T07:06:11.543Z,8.00
2019-03-04T07:08:43.353Z,8.10
2019-03-04T07:11:12.229Z,8.20
2019-03-04T07:13:41.063Z,8.30
2019-03-04T07:16:09.920Z,8.40
2019-03-04T07:18:38.796Z,8.50
2019-03-04T07:21:07.621Z,8.60
2019-03-04T07:23:36.486Z,8.70
2019-03-04T07:26:05.350Z,8.80
2019-03-04T07:28:34.189Z,8.90
2019-03-04T07:31:03.052Z,9.00
2019-03-04T07:33:31.924Z,9.00
2019-03-04T07:36:00.748Z,9.10
2019-03-04T07:38:44.231Z,9.20
2019-03-04T07:41:13.198Z,9.30
2019-03-04T07:43:42.034Z,9.40
2019-03-04T07:46:10.897Z,9.50
2019-03-04T07:48:39.768Z,9.60
2019-03-04T07:51:18.836Z,9.70
2019-03-04T07:53:47.706Z,9.80
2019-03-04T07:56:16.532Z,9.90
2019-03-04T07:58:45.403Z,10.00
2019-03-04T08:01:14.273Z,10.10
2019-03-04T08:03:43.106Z,10.20
2019-03-04T08:06:12.279Z,10.20
2019-03-04T08:08:43.220Z,10.30
2019-03-04T08:11:31.575Z,10.30
2019-03-04T08:14:14.077Z,10.40
2019-03-04T08:16:42.965Z,10.50
2019-03-04T08:19:11.826Z,10.50
2019-03-04T08:21:40.652Z,10.60
2019-03-04T08:24:09.518Z,10.70
2019-03-04T08:26:38.393Z,10.80
2019-03-04T08:29:07.728Z,10.90
2019-03-04T08:31:36.606Z,10.90
2019-03-04T08:34:05.479Z,11.00
2019-03-04T08:36:34.316Z,11.10
2019-03-04T08:39:03.385Z,11.20
2019-03-04T08:41:32.257Z,11.20
2019-03-04T08:44:01.087Z,11.30
2019-03-04T08:46:29.951Z,11.40
2019-03-04T08:48:58.819Z,11.40
2019-03-04T08:51:27.649Z,11.50
2019-03-04T08:53:56.516Z,11.60
2019-03-04T08:56:25.384Z,11.60
2019-03-04T08:58:54.220Z,11.60
2019-03-04T09:01:23.092Z,11.70
2019-03-04T09:04:04.308Z,11.70
2019-03-04T09:06:33.341Z,11.70
2019-03-04T09:09:02.214Z,11.80
2019-03-04T09:11:31.041Z,11.80
2019-03-04T09:13:59.914Z,11.90
2019-03-04T09:16:28.792Z,11.90
2019-03-04T09:18:57.621Z,11.90
2019-03-04T09:21:26.505Z,12.00
2019-03-04T09:23:55.375Z,11.90
2019-03-04T09:26:24.225Z,12.00
2019-03-04T09:28:53.083Z,12.00
2019-03-04T09:31:21.965Z,12.10
2019-03-04T09:33:50.792Z,12.00
2019-03-04T09:36:19.660Z,12.00
2019-03-04T09:38:48.536Z,12.00
2019-03-04T09:41:17.368Z,11.90
2019-03-04T09:43:46.252Z,11.80
2019-03-04T09:46:15.234Z,11.60
2019-03-04T09:48:44.079Z,11.50
2019-03-04T09:51:12.959Z,11.60
2019-03-04T09:53:43.106Z,11.70
2019-03-04T09:56:12.079Z,11.80
2019-03-04T09:58:40.964Z,11.90
2019-03-04T10:01:15.548Z,12.00
2019-03-04T10:03:55.767Z,12.20
2019-03-04T10:06:39.244Z,12.40
2019-03-04T10:09:31.988Z,12.60
2019-03-04T10:12:03.789Z,12.80
2019-03-04T10:14:52.307Z,12.90
2019-03-04T10:17:40.515Z,13.00
2019-03-04T10:20:45.963Z,13.10
2019-03-04T10:23:32.727Z,13.00
2019-03-04T10:26:23.174Z,13.00
2019-03-04T10:29:02.287Z,13.20
2019-03-04T10:31:58.258Z,13.30
2019-03-04T10:34:46.498Z,13.30
2019-03-04T10:37:27.092Z,13.40
2019-03-04T10:40:19.967Z,13.50
2019-03-04T10:42:54.697Z,13.60
2019-03-04T10:45:42.995Z,13.70
2019-03-04T10:48:11.874Z,13.60
2019-03-04T10:50:40.755Z,13.60
2019-03-04T10:53:09.572Z,13.70
2019-03-04T10:55:42.075Z,13.70
2019-03-04T10:58:08.989Z,13.50
2019-03-04T11:00:37.840Z,13.30
2019-03-04T11:03:06.726Z,13.10
2019-03-04T11:05:35.593Z,12.90
2019-03-04T11:08:04.437Z,12.90
2019-03-04T11:10:33.311Z,12.80
2019-03-04T11:13:02.191Z,12.70
2019-03-04T11:15:31.439Z,12.80
2019-03-04T11:18:00.623Z,12.70
2019-03-04T11:20:29.498Z,12.70
2019-03-04T11:22:58.348Z,12.70
2019-03-04T11:25:27.825Z,12.60
2019-03-04T11:27:56.719Z,12.60
2019-03-04T11:30:27.151Z,12.50
2019-03-04T11:32:56.014Z,12.40
2019-03-04T11:35:24.878Z,12.30
2019-03-04T11:37:53.756Z,12.30
2019-03-04T11:40:27.315Z,12.20
2019-03-04T11:42:56.189Z,12.10
2019-03-04T11:45:25.036Z,12.10
2019-03-04T11:47:53.924Z,12.00
2019-03-04T11:50:22.797Z,11.90
2019-03-04T11:52:51.628Z,11.90
2019-03-04T11:55:26.730Z,11.80
2019-03-04T11:57:55.561Z,11.80
2019-03-04T12:00:36.503Z,11.70
2019-03-04T12:03:05.352Z,11.60
2019-03-04T12:05:34.225Z,11.60
2019-03-04T12:08:03.057Z,11.50
2019-03-04T12:10:31.979Z,11.50
2019-03-04T12:13:00.788Z,11.50
2019-03-04T12:15:29.677Z,11.50
2019-03-04T12:17:58.540Z,11.50
2019-03-04T12:20:27.382Z,11.50
2019-03-04T12:22:56.289Z,11.50
2019-03-04T12:25:25.192Z,11.50
2019-03-04T12:27:54.024Z,11.50
2019-03-04T12:30:27.027Z,11.50
2019-03-04T12:32:56.224Z,11.50
2019-03-04T12:35:25.116Z,11.40
2019-03-04T12:37:54.108Z,11.40
2019-03-04T12:40:23.899Z,11.40
2019-03-04T12:42:52.916Z,11.40
2019-03-04T12:45:33.736Z,11.40
2019-03-04T12:47:54.285Z,11.30
2019-03-04T12:50:25.440Z,11.30
2019-03-04T12:52:55.037Z,11.20
2019-03-04T12:55:23.925Z,11.20
2019-03-04T12:57:52.922Z,11.20
2019-03-04T13:00:24.048Z,11.10
2019-03-04T13:02:57.491Z,11.10
2019-03-04T13:05:23.556Z,11.10
2019-03-04T13:07:52.429Z,11.00
2019-03-04T13:10:21.455Z,11.00
2019-03-04T13:12:50.331Z,11.00
2019-03-04T13:15:28.496Z,10.90
2019-03-04T13:17:57.747Z,10.80
2019-03-04T13:20:38.927Z,10.80
2019-03-04T13:23:50.545Z,10.80
2019-03-04T13:26:19.433Z,10.80
2019-03-04T13:28:48.308Z,10.70
2019-03-04T13:31:17.193Z,10.70
2019-03-04T13:33:46.084Z,10.70
2019-03-04T13:36:14.997Z,10.70
2019-03-04T13:38:44.512Z,10.60
2019-03-04T13:41:13.601Z,10.60
2019-03-04T13:43:42.491Z,10.60
2019-03-04T13:46:11.467Z,10.60
2019-03-04T13:48:40.478Z,10.60
2019-03-04T13:51:09.470Z,10.60
2019-03-04T13:53:38.440Z,10.70
2019-03-04T13:56:07.356Z,10.70
2019-03-04T13:58:36.169Z,10.70
2019-03-04T14:01:06.834Z,10.70
2019-03-04T14:03:35.700Z,10.70
2019-03-04T14:06:04.541Z,10.70
2019-03-04T14:08:33.407Z,10.70
2019-03-04T14:11:02.400Z,10.60
2019-03-04T14:13:31.259Z,10.60
2019-03-04T14:16:00.160Z,10.60
2019-03-04T14:18:29.526Z,10.60
2019-03-04T14:20:58.379Z,10.60
2019-03-04T14:23:27.253Z,10.50
2019-03-04T14:25:56.126Z,10.60
2019-03-04T14:28:25.456Z,10.60
2019-03-04T14:30:54.340Z,10.60
2019-03-04T14:33:23.286Z,10.60
2019-03-04T14:35:52.182Z,10.60
2019-03-04T14:38:21.274Z,10.60
2019-03-04T14:40:50.163Z,10.50
2019-03-04T14:43:19.054Z,10.50
2019-03-04T14:45:48.049Z,10.50
2019-03-04T14:48:18.103Z,10.50
2019-03-04T14:53:51.499Z,10.50
2019-03-04T14:56:22.632Z,10.80
2019-03-04T14:59:09.195Z,11.10
2019-03-04T15:01:21.537Z,11.20
2019-03-04T15:03:51.468Z,11.20
2019-03-04T15:06:20.349Z,11.20
2019-03-04T15:08:49.218Z,11.20
2019-03-04T15:11:24.579Z,11.10
2019-03-04T15:13:53.468Z,11.00
2019-03-04T15:16:22.338Z,10.90
2019-03-04T15:18:51.230Z,10.80
2019-03-04T15:21:20.119Z,10.90
2019-03-04T15:23:49.134Z,11.00
2019-03-04T15:26:18.110Z,11.00
2019-03-04T15:28:47.019Z,11.00
2019-03-04T15:31:16.115Z,11.00
2019-03-04T15:33:45.110Z,11.10
2019-03-04T15:36:14.103Z,11.10
2019-03-04T15:38:42.994Z,11.00
2019-03-04T15:41:11.885Z,11.00
2019-03-04T15:43:40.776Z,11.00
2019-03-04T15:46:09.668Z,11.00
2019-03-04T15:48:53.919Z,10.90
2019-03-04T15:51:22.809Z,10.90
2019-03-04T15:53:51.908Z,10.90
2019-03-04T15:56:20.818Z,10.80
2019-03-04T15:58:51.706Z,10.70
2019-03-04T16:01:20.320Z,10.60
2019-03-04T16:03:49.212Z,10.60
2019-03-04T16:06:18.102Z,10.50
2019-03-04T16:09:12.594Z,10.40
2019-03-04T16:11:41.588Z,10.40
2019-03-04T16:14:10.581Z,10.30
2019-03-04T16:16:48.896Z,10.30
2019-03-04T16:19:17.785Z,10.30
2019-03-04T16:21:46.595Z,10.30
2019-03-04T16:24:15.474Z,10.20
2019-03-04T16:26:44.369Z,10.20
2019-03-04T16:29:13.259Z,10.20
2019-03-04T16:31:42.158Z,10.20
2019-03-04T16:34:11.046Z,10.20
2019-03-04T16:36:40.446Z,10.20
2019-03-04T16:39:09.544Z,10.20
2019-03-04T16:41:38.741Z,10.20
2019-03-04T16:44:07.633Z,10.20
2019-03-04T16:46:36.522Z,10.00
2019-03-04T16:49:05.724Z,9.40
2019-03-04T16:51:34.715Z,8.90
2019-03-04T16:54:03.609Z,8.30
2019-03-04T16:56:32.452Z,7.90
2019-03-04T16:59:01.276Z,7.40
2019-03-04T17:01:31.119Z,7.20
2019-03-04T17:03:59.991Z,7.00
2019-03-04T17:06:28.823Z,6.80
2019-03-04T17:08:57.653Z,6.60
2019-03-04T17:11:26.516Z,6.40
2019-03-04T17:13:55.341Z,6.30
2019-03-04T17:16:24.203Z,6.20
2019-03-04T17:18:53.067Z,6.20
2019-03-04T17:21:21.894Z,6.10
2019-03-04T17:23:50.762Z,6.10
2019-03-04T17:26:19.627Z,6.00
2019-03-04T17:28:48.448Z,6.00
2019-03-04T17:31:17.311Z,6.00
2019-03-04T17:33:46.178Z,6.00
2019-03-04T17:36:15.003Z,6.00
2019-03-04T17:38:43.879Z,6.00
2019-03-04T17:41:12.727Z,6.00
2019-03-04T17:43:41.555Z,6.00
2019-03-04T17:46:10.423Z,5.90
2019-03-04T17:48:39.283Z,6.00
2019-03-04T17:51:08.107Z,5.90
2019-03-04T17:53:36.971Z,5.90
2019-03-04T17:56:05.843Z,5.90
2019-03-04T17:58:34.667Z,5.90
2019-03-04T18:01:03.540Z,5.90
2019-03-04T18:03:32.585Z,6.00
2019-03-04T18:06:01.451Z,6.00
2019-03-04T18:08:30.254Z,6.00
2019-03-04T18:10:59.130Z,6.00
2019-03-04T18:13:27.955Z,6.00
2019-03-04T18:15:56.811Z,6.10
2019-03-04T18:18:25.675Z,6.10
2019-03-04T18:20:54.504Z,6.10
2019-03-04T18:23:23.392Z,6.10
2019-03-04T18:26:07.276Z,6.10
2019-03-04T18:29:12.402Z,6.10
2019-03-04T18:31:56.044Z,6.10
2019-03-04T18:34:47.556Z,6.10
2019-03-04T18:37:35.955Z,6.10
2019-03-04T18:40:13.541Z,6.10
2019-03-04T18:42:57.154Z,6.00
2019-03-04T18:45:38.546Z,6.00
2019-03-04T18:48:28.463Z,6.00
2019-03-04T18:50:57.664Z,5.90
2019-03-04T18:53:26.546Z,5.90
2019-03-04T18:55:55.371Z,5.90
2019-03-04T18:58:24.272Z,5.80
2019-03-04T19:00:53.133Z,5.80
2019-03-04T19:03:21.964Z,5.80
2019-03-04T19:05:50.818Z,5.80
2019-03-04T19:08:19.688Z,5.80
2019-03-04T19:10:48.516Z,5.70
2019-03-04T19:13:17.374Z,5.70
2019-03-04T19:15:47.100Z,5.70
2019-03-04T19:18:15.933Z,5.70
2019-03-04T19:20:44.796Z,5.60
2019-03-04T19:23:13.660Z,5.60
2019-03-04T19:25:42.683Z,5.50
2019-03-04T19:28:11.558Z,5.50
2019-03-04T19:30:40.446Z,5.50
2019-03-04T19:33:09.277Z,5.40
2019-03-04T19:35:38.134Z,5.40
2019-03-04T19:38:07.006Z,5.30
2019-03-04T19:40:35.832Z,5.30
2019-03-04T19:43:04.699Z,5.30
2019-03-04T19:45:33.567Z,5.20
2019-03-04T19:48:02.396Z,5.20
2019-03-04T19:50:31.459Z,5.20
2019-03-04T19:53:00.327Z,5.20
2019-03-04T19:55:29.152Z,5.10
2019-03-04T19:57:58.934Z,5.10
2019-03-04T20:00:32.403Z,5.00
2019-03-04T20:03:01.227Z,5.00
2019-03-04T20:05:32.297Z,5.00
2019-03-04T20:08:01.552Z,5.00
2019-03-04T20:10:31.582Z,4.90
2019-03-04T20:13:00.463Z,4.90
2019-03-04T20:15:34.444Z,4.90
2019-03-04T20:18:03.320Z,4.90
2019-03-04T20:20:32.287Z,4.90
2019-03-04T20:23:01.612Z,4.90
2019-03-04T20:25:30.579Z,4.90
2019-03-04T20:27:59.447Z,4.90
2019-03-04T20:30:28.277Z,4.90
2019-03-04T20:32:57.140Z,4.90
2019-03-04T20:35:25.969Z,4.90
2019-03-04T20:38:05.247Z,4.90
2019-03-04T20:40:34.130Z,4.80
2019-03-04T20:43:03.048Z,4.80
2019-03-04T20:45:31.914Z,4.80
2019-03-04T20:48:00.797Z,4.80
2019-03-04T20:50:29.612Z,4.80
2019-03-04T20:52:58.481Z,4.80
2019-03-04T20:55:27.362Z,4.80
2019-03-04T20:57:56.225Z,4.70
2019-03-04T21:00:36.169Z,4.70
2019-03-04T21:03:08.948Z,4.70
2019-03-04T21:05:44.047Z,4.70
2019-03-04T21:08:12.920Z,4.70
2019-03-04T21:10:41.742Z,4.70
2019-03-04T21:13:12.286Z,4.70
2019-03-04T21:15:50.115Z,4.70
2019-03-04T21:18:18.983Z,4.70
2019-03-04T21:20:47.839Z,4.60
2019-03-04T21:23:16.768Z,4.60
2019-03-04T21:25:48.571Z,4.60
2019-03-04T21:28:26.391Z,4.60
2019-03-04T21:31:10.035Z,4.60
2019-03-04T21:33:56.851Z,4.50
2019-03-04T21:36:37.495Z,4.50
2019-03-04T21:39:08.163Z,4.50
2019-03-04T21:41:39.969Z,4.50
2019-03-04T21:44:31.132Z,4.50
2019-03-04T21:47:08.914Z,4.50
2019-03-04T21:49:40.340Z,4.50
2019-03-04T21:52:19.937Z,4.40
2019-03-04T21:54:42.628Z,4.40
2019-03-04T21:57:20.168Z,4.40
2019-03-04T21:59:49.039Z,4.40
2019-03-04T22:02:29.919Z,4.40
2019-03-04T22:05:01.388Z,4.40
2019-03-04T22:07:30.294Z,4.30
2019-03-04T22:09:59.500Z,4.40
2019-03-04T22:12:29.534Z,4.40
2019-03-04T22:14:58.460Z,4.30
2019-03-04T22:17:27.381Z,4.30
2019-03-04T22:19:56.202Z,4.30
2019-03-04T22:22:25.061Z,4.30
2019-03-04T22:24:53.923Z,4.30
2019-03-04T22:27:22.849Z,4.30
2019-03-04T22:29:51.739Z,4.30
2019-03-04T22:32:20.635Z,4.30
2019-03-04T22:34:49.547Z,4.30
2019-03-04T22:37:18.429Z,4.30
2019-03-04T22:39:47.304Z,4.30
2019-03-04T22:42:16.195Z,4.30
2019-03-04T22:44:45.100Z,4.30
2019-03-04T22:47:15.431Z,4.30
2019-03-04T22:49:44.302Z,4.30
2019-03-04T22:52:13.193Z,4.30
2019-03-04T22:54:42.087Z,4.30
2019-03-04T22:57:10.976Z,4.40
2019-03-04T22:59:39.868Z,4.40
2019-03-04T23:02:09.031Z,4.30
2019-03-04T23:04:38.239Z,4.40
2019-03-04T23:07:08.666Z,4.40
2019-03-04T23:09:40.597Z,4.40
2019-03-04T23:12:27.469Z,4.40
2019-03-04T23:14:56.459Z,4.40
2019-03-04T23:17:25.351Z,4.40
2019-03-04T23:19:54.243Z,4.40
2019-03-04T23:22:23.135Z,4.40
2019-03-04T23:24:52.229Z,4.40
2019-03-04T23:27:21.121Z,4.40
2019-03-04T23:29:50.012Z,4.40
2019-03-04T23:32:18.903Z,4.40
2019-03-04T23:34:47.794Z,4.50
2019-03-04T23:37:16.685Z,4.50
2019-03-04T23:39:45.576Z,4.50
2019-03-04T23:42:14.467Z,4.60
2019-03-04T23:44:43.359Z,4.60
2019-03-04T23:47:12.250Z,4.60
2019-03-04T23:49:41.144Z,4.60
2019-03-04T23:52:10.033Z,4.60
2019-03-04T23:54:38.957Z,4.60
2019-03-04T23:57:07.917Z,4.50
2019-03-04T23:59:36.809Z,4.50
